createdAt,value
2023-01-31T00:02:26.426Z,99765.53
2023-01-31T00:04:54.756Z,99767.84
2023-01-31T00:07:23.072Z,99768.63
2023-01-31T00:09:51.662Z,99768.63
2023-01-31T00:12:19.955Z,99773.75
2023-01-31T00:14:48.458Z,99777.63
2023-01-31T00:17:16.784Z,99776.00
2023-01-31T00:19:45.119Z,99770.44
2023-01-31T00:22:13.473Z,99778.22
2023-01-31T00:24:41.765Z,99783.59
2023-01-31T00:27:10.120Z,99779.19
2023-01-31T00:29:38.527Z,99783.38
2023-01-31T00:32:07.054Z,99790.31
2023-01-31T00:34:35.470Z,99785.88
2023-01-31T00:37:04.142Z,99785.75
2023-01-31T00:39:32.449Z,99789.56
2023-01-31T00:42:00.756Z,99789.78
2023-01-31T00:44:29.084Z,99784.97
2023-01-31T00:46:57.439Z,99797.78
2023-01-31T00:49:25.765Z,99795.66
2023-01-31T00:51:54.057Z,99802.56
2023-01-31T00:54:22.546Z,99809.09
2023-01-31T00:56:50.885Z,99806.16
2023-01-31T00:59:19.259Z,99813.84
2023-01-31T01:01:47.644Z,99818.00
2023-01-31T01:04:15.962Z,99823.72
2023-01-31T01:06:44.247Z,99822.81
2023-01-31T01:09:12.578Z,99815.94
2023-01-31T01:11:40.888Z,99829.94
2023-01-31T01:14:09.241Z,99820.72
2023-01-31T01:16:40.116Z,99826.84
2023-01-31T01:19:13.726Z,99828.22
2023-01-31T01:21:42.250Z,99827.31
2023-01-31T01:24:15.571Z,99837.31
2023-01-31T01:26:44.986Z,99841.00
2023-01-31T01:29:13.947Z,99838.88
2023-01-31T01:31:42.507Z,99835.06
2023-01-31T01:34:15.248Z,99852.56
2023-01-31T01:36:46.790Z,99854.28
2023-01-31T01:39:16.267Z,99844.50
2023-01-31T01:41:45.221Z,99845.03
2023-01-31T01:44:50.906Z,99852.25
2023-01-31T01:47:47.667Z,99852.31
2023-01-31T01:50:37.927Z,99860.66
2023-01-31T01:53:24.944Z,99852.38
2023-01-31T01:55:58.397Z,99863.16
2023-01-31T01:58:30.141Z,99861.28
2023-01-31T02:01:02.573Z,99867.38
2023-01-31T02:03:41.266Z,99872.28
2023-01-31T02:06:09.735Z,99881.47
2023-01-31T02:08:41.544Z,99884.38
2023-01-31T02:11:29.783Z,99883.72
2023-01-31T02:14:05.142Z,99887.81
2023-01-31T02:16:33.774Z,99889.03
2023-01-31T02:19:02.635Z,99890.69
2023-01-31T02:21:39.664Z,99890.78
2023-01-31T02:24:19.585Z,99888.13
2023-01-31T02:27:18.433Z,99884.22
2023-01-31T02:29:58.678Z,99893.41
2023-01-31T02:32:59.840Z,99897.81
2023-01-31T02:35:40.212Z,99897.13
2023-01-31T02:38:24.386Z,99893.25
2023-01-31T02:41:01.585Z,99891.66
2023-01-31T02:44:00.157Z,99886.63
2023-01-31T02:46:45.702Z,99891.78
2023-01-31T02:49:38.815Z,99887.88
2023-01-31T02:52:18.712Z,99881.16
2023-01-31T02:55:42.527Z,99890.66
2023-01-31T02:58:14.441Z,99881.78
2023-01-31T03:00:46.463Z,99885.03
2023-01-31T03:03:23.322Z,99882.38
2023-01-31T03:06:40.278Z,99873.63
2023-01-31T03:09:37.462Z,99868.44
2023-01-31T03:12:24.155Z,99872.31
2023-01-31T03:14:58.250Z,99866.47
2023-01-31T03:18:00.428Z,99867.28
2023-01-31T03:20:44.700Z,99862.19
2023-01-31T03:23:19.246Z,99857.13
2023-01-31T03:25:49.299Z,99847.25
2023-01-31T03:28:24.364Z,99846.97
2023-01-31T03:31:21.839Z,99846.22
2023-01-31T03:33:53.570Z,99848.38
2023-01-31T03:36:58.186Z,99840.50
2023-01-31T03:39:38.644Z,99825.53
2023-01-31T03:42:18.594Z,99823.19
2023-01-31T03:45:11.686Z,99813.59
2023-01-31T03:47:44.329Z,99810.50
2023-01-31T03:50:21.534Z,99805.69
2023-01-31T03:53:33.236Z,99797.63
2023-01-31T03:56:50.604Z,99789.56
2023-01-31T03:59:27.650Z,99787.53
2023-01-31T04:02:00.640Z,99786.72
2023-01-31T04:05:05.023Z,99777.88
2023-01-31T04:07:33.517Z,99783.38
2023-01-31T04:10:02.372Z,99777.00
2023-01-31T04:12:30.781Z,99773.09
2023-01-31T04:14:59.896Z,99764.88
2023-01-31T04:17:28.343Z,99767.00
2023-01-31T04:19:56.659Z,99764.31
2023-01-31T04:22:24.937Z,99757.63
2023-01-31T04:24:53.300Z,99752.94
2023-01-31T04:27:21.698Z,99741.47
2023-01-31T04:29:50.100Z,99732.25
2023-01-31T04:32:18.546Z,99738.25
2023-01-31T04:34:46.914Z,99724.69
2023-01-31T04:37:15.238Z,99728.34
2023-01-31T04:39:43.555Z,99720.06
2023-01-31T04:44:53.246Z,99710.69
2023-01-31T04:47:21.586Z,99696.06
2023-01-31T04:49:49.932Z,99686.53
2023-01-31T04:52:18.238Z,99683.06
2023-01-31T04:54:46.525Z,99676.13
2023-01-31T04:57:14.825Z,99673.44
2023-01-31T04:59:43.164Z,99665.72
2023-01-31T05:02:11.585Z,99665.63
2023-01-31T05:04:39.858Z,99652.50
2023-01-31T05:07:08.160Z,99644.50
2023-01-31T05:09:36.516Z,99650.41
2023-01-31T05:12:06.381Z,99631.25
2023-01-31T05:14:34.751Z,99627.53
2023-01-31T05:17:03.671Z,99622.56
2023-01-31T05:19:32.599Z,99620.91
2023-01-31T05:22:01.026Z,99614.91
2023-01-31T05:24:34.529Z,99606.09
2023-01-31T05:27:04.493Z,99599.81
2023-01-31T05:29:34.919Z,99598.63
2023-01-31T05:32:04.255Z,99592.59
2023-01-31T05:34:34.239Z,99583.47
2023-01-31T05:37:03.777Z,99584.28
2023-01-31T05:39:33.103Z,99574.91
2023-01-31T05:42:01.934Z,99572.47
2023-01-31T05:44:30.426Z,99562.59
2023-01-31T05:46:58.764Z,99549.91
2023-01-31T05:49:27.103Z,99551.47
2023-01-31T05:51:55.443Z,99542.09
2023-01-31T05:54:23.757Z,99534.56
2023-01-31T05:56:52.269Z,99535.34
2023-01-31T05:59:20.579Z,99524.97
2023-01-31T06:01:48.966Z,99519.91
2023-01-31T06:04:17.375Z,99510.25
2023-01-31T06:06:46.382Z,99497.84
2023-01-31T06:09:14.728Z,99501.44
2023-01-31T06:11:43.022Z,99481.09
2023-01-31T06:14:11.500Z,99488.25
2023-01-31T06:16:39.944Z,99478.34
2023-01-31T06:19:08.235Z,99475.09
2023-01-31T06:21:37.012Z,99465.44
2023-01-31T06:24:05.669Z,99458.09
2023-01-31T06:26:33.966Z,99456.88
2023-01-31T06:29:02.324Z,99444.13
2023-01-31T06:31:30.957Z,99440.81
2023-01-31T06:34:02.588Z,99438.78
2023-01-31T06:36:34.948Z,99422.50
2023-01-31T06:39:05.045Z,99415.38
2023-01-31T06:41:33.717Z,99413.06
2023-01-31T06:44:02.109Z,99410.06
2023-01-31T06:46:30.792Z,99399.34
2023-01-31T06:48:59.469Z,99388.41
2023-01-31T06:51:27.772Z,99392.97
2023-01-31T06:53:57.224Z,99387.88
2023-01-31T06:56:25.988Z,99377.69
2023-01-31T06:58:54.795Z,99371.06
2023-01-31T07:01:25.213Z,99364.69
2023-01-31T07:03:54.350Z,99359.31
2023-01-31T07:06:26.569Z,99351.94
2023-01-31T07:08:55.114Z,99344.81
2023-01-31T07:11:23.463Z,99339.72
2023-01-31T07:13:51.958Z,99336.66
2023-01-31T07:16:20.723Z,99328.50
2023-01-31T07:18:49.030Z,99325.94
2023-01-31T07:21:17.374Z,99318.56
2023-01-31T07:23:46.514Z,99313.97
2023-01-31T07:26:15.349Z,99301.72
2023-01-31T07:28:43.854Z,99301.97
2023-01-31T07:31:15.469Z,99295.84
2023-01-31T07:33:43.812Z,99288.19
2023-01-31T07:36:15.675Z,99289.22
2023-01-31T07:38:44.589Z,99286.91
2023-01-31T07:41:13.011Z,99276.19
2023-01-31T07:43:41.325Z,99267.25
2023-01-31T07:46:11.384Z,99268.25
2023-01-31T07:48:40.463Z,99266.22
2023-01-31T07:51:09.758Z,99259.06
2023-01-31T07:53:45.895Z,99260.84
2023-01-31T07:56:20.656Z,99263.13
2023-01-31T07:58:51.497Z,99254.97
2023-01-31T08:01:42.980Z,99247.56
2023-01-31T08:04:21.633Z,99241.66
2023-01-31T08:06:55.263Z,99250.59
2023-01-31T08:09:26.064Z,99240.13
2023-01-31T08:11:54.435Z,99238.63
2023-01-31T08:14:26.690Z,99233.75
2023-01-31T08:16:57.997Z,99230.97
2023-01-31T08:19:27.732Z,99230.97
2023-01-31T08:21:56.025Z,99219.75
2023-01-31T08:24:24.301Z,99219.47
2023-01-31T08:26:52.869Z,99226.63
2023-01-31T08:29:24.364Z,99213.84
2023-01-31T08:31:53.721Z,99214.63
2023-01-31T08:34:24.109Z,99210.03
2023-01-31T08:36:52.566Z,99212.59
2023-01-31T08:39:20.900Z,99207.22
2023-01-31T08:41:49.257Z,99201.63
2023-01-31T08:44:17.719Z,99202.38
2023-01-31T08:46:46.810Z,99200.84
2023-01-31T08:49:18.373Z,99204.44
2023-01-31T08:51:56.153Z,99200.59
2023-01-31T08:57:14.979Z,99208.75
2023-01-31T08:59:50.998Z,99203.91
2023-01-31T09:02:26.193Z,99198.06
2023-01-31T09:04:54.475Z,99194.50
2023-01-31T09:07:22.795Z,99198.59
2023-01-31T09:09:51.142Z,99201.91
2023-01-31T09:12:19.427Z,99199.63
2023-01-31T09:14:47.839Z,99198.09
2023-01-31T09:17:16.204Z,99194.28
2023-01-31T09:19:44.697Z,99196.84
2023-01-31T09:22:13.098Z,99201.47
2023-01-31T09:24:41.537Z,99198.94
2023-01-31T09:27:10.029Z,99198.44
2023-01-31T09:29:38.413Z,99195.91
2023-01-31T09:32:06.977Z,99201.78
2023-01-31T09:34:35.410Z,99202.06
2023-01-31T09:37:03.746Z,99205.13
2023-01-31T09:39:32.016Z,99204.91
2023-01-31T09:42:18.421Z,99201.59
2023-01-31T09:44:58.768Z,99204.91
2023-01-31T09:47:35.315Z,99198.78
2023-01-31T09:50:22.973Z,99205.94
2023-01-31T09:52:51.827Z,99204.94
2023-01-31T09:55:26.620Z,99208.25
2023-01-31T09:58:28.300Z,99207.00
2023-01-31T10:01:25.668Z,99209.31
2023-01-31T10:04:15.581Z,99203.72
2023-01-31T10:07:10.241Z,99201.69
2023-01-31T10:09:41.620Z,99197.38
2023-01-31T10:12:27.989Z,99209.88
2023-01-31T10:15:14.480Z,99199.97
2023-01-31T10:17:51.946Z,99202.25
2023-01-31T10:23:03.519Z,99204.78
2023-01-31T10:26:11.240Z,99208.63
2023-01-31T10:28:45.792Z,99196.38
2023-01-31T10:31:36.180Z,99207.84
2023-01-31T10:34:18.909Z,99204.53
2023-01-31T10:37:06.596Z,99208.59
2023-01-31T10:39:37.900Z,99215.19
2023-01-31T10:42:34.200Z,99219.00
2023-01-31T10:45:20.125Z,99225.53
2023-01-31T10:48:19.887Z,99224.25
2023-01-31T10:51:14.169Z,99229.59
2023-01-31T10:54:04.467Z,99229.53
2023-01-31T10:56:36.838Z,99236.13
2023-01-31T10:59:26.250Z,99238.38
2023-01-31T11:01:54.749Z,99235.50
2023-01-31T11:04:26.256Z,99232.94
2023-01-31T11:06:55.222Z,99239.47
2023-01-31T11:09:25.716Z,99241.16
2023-01-31T11:11:57.184Z,99237.31
2023-01-31T11:14:25.767Z,99237.78
2023-01-31T11:17:06.054Z,99244.31
2023-01-31T11:19:48.164Z,99243.25
2023-01-31T11:22:38.854Z,99250.56
2023-01-31T11:25:08.291Z,99253.31
2023-01-31T11:27:45.159Z,99259.53
2023-01-31T11:30:23.166Z,99273.19
2023-01-31T11:32:51.665Z,99266.97
2023-01-31T11:35:19.924Z,99263.84
2023-01-31T11:38:05.022Z,99263.53
2023-01-31T11:40:36.092Z,99266.47
2023-01-31T11:43:07.168Z,99269.69
2023-01-31T11:45:39.444Z,99275.69
2023-01-31T11:48:20.689Z,99281.69
2023-01-31T11:51:05.585Z,99286.44
2023-01-31T11:53:50.611Z,99282.06
2023-01-31T11:56:21.539Z,99283.22
2023-01-31T11:58:55.134Z,99293.25
2023-01-31T12:01:27.490Z,99302.03
2023-01-31T12:04:03.449Z,99300.41
2023-01-31T12:06:41.032Z,99303.59
2023-01-31T12:09:25.281Z,99301.22
2023-01-31T12:12:00.671Z,99307.97
2023-01-31T12:14:43.343Z,99309.13
2023-01-31T12:17:17.922Z,99304.44
2023-01-31T12:19:55.016Z,99317.03
2023-01-31T12:22:29.380Z,99318.97
2023-01-31T12:25:29.821Z,99317.81
2023-01-31T12:28:34.329Z,99328.28
2023-01-31T12:31:31.383Z,99331.91
2023-01-31T12:34:23.387Z,99334.00
2023-01-31T12:37:09.445Z,99336.41
2023-01-31T12:39:58.038Z,99340.34
2023-01-31T12:42:38.680Z,99341.97
2023-01-31T12:45:40.836Z,99353.44
2023-01-31T12:48:27.457Z,99353.84
2023-01-31T12:51:32.607Z,99357.94
2023-01-31T12:54:23.197Z,99360.78
2023-01-31T12:57:23.861Z,99363.91
2023-01-31T13:00:03.741Z,99359.50
2023-01-31T13:02:50.655Z,99376.50
2023-01-31T13:05:37.386Z,99372.06
2023-01-31T13:08:29.705Z,99383.81
2023-01-31T13:11:10.818Z,99388.50
2023-01-31T13:13:47.860Z,99391.16
2023-01-31T13:16:28.326Z,99397.34
2023-01-31T13:19:02.030Z,99392.41
2023-01-31T13:21:44.687Z,99401.41
2023-01-31T13:24:47.439Z,99397.25
2023-01-31T13:27:31.317Z,99399.44
2023-01-31T13:30:09.893Z,99407.16
2023-01-31T13:32:49.451Z,99401.78
2023-01-31T13:35:29.393Z,99411.50
2023-01-31T13:38:04.095Z,99408.88
2023-01-31T13:40:45.868Z,99421.41
2023-01-31T13:43:17.488Z,99416.78
2023-01-31T13:46:00.218Z,99420.19
2023-01-31T13:48:46.713Z,99429.94
2023-01-31T13:51:20.023Z,99427.03
2023-01-31T13:54:14.347Z,99427.59
2023-01-31T13:56:43.727Z,99431.78
2023-01-31T13:59:12.746Z,99428.38
2023-01-31T14:01:51.099Z,99447.22
2023-01-31T14:04:19.575Z,99441.06
2023-01-31T14:07:03.793Z,99433.66
2023-01-31T14:09:41.211Z,99439.34
2023-01-31T14:12:18.318Z,99436.72
2023-01-31T14:14:52.429Z,99438.88
2023-01-31T14:17:29.498Z,99436.28
2023-01-31T14:19:57.854Z,99442.44
2023-01-31T14:22:34.359Z,99437.06
2023-01-31T14:25:16.060Z,99447.06
2023-01-31T14:27:54.634Z,99438.91
2023-01-31T14:30:25.201Z,99446.13
2023-01-31T14:33:12.143Z,99449.81
2023-01-31T14:35:55.381Z,99453.50
2023-01-31T14:39:07.782Z,99451.66
2023-01-31T14:41:47.250Z,99455.38
2023-01-31T14:44:53.954Z,99456.75
2023-01-31T14:47:54.073Z,99453.38
2023-01-31T14:50:42.415Z,99456.72
2023-01-31T14:53:51.939Z,99457.63
2023-01-31T14:56:35.568Z,99454.25
2023-01-31T14:59:04.791Z,99461.47
2023-01-31T15:01:37.689Z,99458.84
2023-01-31T15:04:07.005Z,99456.97
2023-01-31T15:06:41.873Z,99459.91
2023-01-31T15:09:37.077Z,99455.28
2023-01-31T15:12:08.000Z,99460.97
2023-01-31T15:14:50.036Z,99461.41
2023-01-31T15:17:35.542Z,99456.78
2023-01-31T15:20:29.610Z,99462.78
2023-01-31T15:23:05.768Z,99468.78
2023-01-31T15:25:44.510Z,99465.69
2023-01-31T15:28:26.490Z,99466.91
2023-01-31T15:30:59.964Z,99466.91
2023-01-31T15:33:37.256Z,99476.00
2023-01-31T15:36:28.438Z,99471.69
2023-01-31T15:39:00.167Z,99472.91
2023-01-31T15:41:41.378Z,99464.28
2023-01-31T15:44:14.867Z,99455.69
2023-01-31T15:46:45.678Z,99452.59
2023-01-31T15:49:38.592Z,99451.50
2023-01-31T15:52:18.352Z,99462.59
2023-01-31T15:54:58.451Z,99460.72
2023-01-31T15:57:32.631Z,99469.81
2023-01-31T16:00:01.246Z,99461.97
2023-01-31T16:02:38.842Z,99456.88
2023-01-31T16:05:08.399Z,99463.66
2023-01-31T16:07:36.731Z,99456.53
2023-01-31T16:10:05.418Z,99448.38
2023-01-31T16:12:45.439Z,99446.06
2023-01-31T16:15:23.573Z,99440.97
2023-01-31T16:17:54.974Z,99446.19
2023-01-31T16:20:41.610Z,99437.59
2023-01-31T16:23:26.988Z,99436.50
2023-01-31T16:25:58.919Z,99431.88
2023-01-31T16:28:31.855Z,99427.25
2023-01-31T16:31:27.893Z,99430.16
2023-01-31T16:34:01.676Z,99423.53
2023-01-31T16:36:35.014Z,99425.97
2023-01-31T16:39:07.021Z,99426.41
2023-01-31T16:41:57.276Z,99423.34
2023-01-31T16:44:37.269Z,99422.56
2023-01-31T16:47:05.732Z,99428.09
2023-01-31T16:49:38.117Z,99425.78
2023-01-31T16:52:17.395Z,99435.31
2023-01-31T16:54:54.383Z,99426.25
2023-01-31T16:57:38.421Z,99420.41
2023-01-31T17:00:25.816Z,99425.16
2023-01-31T17:02:59.070Z,99422.84
2023-01-31T17:05:32.226Z,99416.22
2023-01-31T17:08:01.145Z,99413.91
2023-01-31T17:10:32.191Z,99409.16
2023-01-31T17:13:10.128Z,99410.84
2023-01-31T17:15:38.645Z,99404.97
2023-01-31T17:18:06.990Z,99402.66
2023-01-31T17:20:35.293Z,99403.91
2023-01-31T17:23:03.988Z,99403.59
2023-01-31T17:25:35.622Z,99407.56
2023-01-31T17:28:05.099Z,99403.69
2023-01-31T17:30:35.208Z,99405.69
2023-01-31T17:33:03.589Z,99401.84
2023-01-31T17:35:38.441Z,99403.06
2023-01-31T17:38:07.225Z,99404.72
2023-01-31T17:40:35.860Z,99412.22
2023-01-31T17:43:05.922Z,99410.25
2023-01-31T17:45:34.344Z,99407.16
2023-01-31T17:48:02.680Z,99411.91
2023-01-31T17:50:31.068Z,99406.06
2023-01-31T17:52:59.378Z,99409.28
2023-01-31T17:55:27.851Z,99406.97
2023-01-31T17:57:56.176Z,99405.88
2023-01-31T18:00:24.660Z,99411.09
2023-01-31T18:02:53.475Z,99408.03
2023-01-31T18:05:30.287Z,99408.47
2023-01-31T18:08:06.511Z,99410.16
2023-01-31T18:10:34.835Z,99408.59
2023-01-31T18:13:03.252Z,99416.13
2023-01-31T18:15:31.675Z,99410.25
2023-01-31T18:18:00.038Z,99411.47
2023-01-31T18:20:28.364Z,99402.09
2023-01-31T18:22:56.727Z,99401.00
2023-01-31T18:25:25.036Z,99398.38
2023-01-31T18:27:53.335Z,99406.34
2023-01-31T18:30:21.733Z,99398.50
2023-01-31T18:32:50.072Z,99394.66
2023-01-31T18:35:18.795Z,99386.81
2023-01-31T18:37:48.909Z,99393.69
2023-01-31T18:40:17.412Z,99391.38
2023-01-31T18:42:45.705Z,99383.97
2023-01-31T18:45:14.107Z,99384.84
2023-01-31T18:47:42.398Z,99371.16
2023-01-31T18:50:11.098Z,99366.88
2023-01-31T18:52:43.119Z,99370.06
2023-01-31T18:55:12.328Z,99370.41
2023-01-31T18:57:40.637Z,99369.19
2023-01-31T19:00:10.943Z,99356.91
2023-01-31T19:02:39.266Z,99358.88
2023-01-31T19:05:09.638Z,99359.66
2023-01-31T19:07:37.990Z,99350.59
2023-01-31T19:10:06.643Z,99354.91
2023-01-31T19:12:34.919Z,99347.38
2023-01-31T19:15:03.220Z,99348.47
2023-01-31T19:17:31.535Z,99331.88
2023-01-31T19:19:59.849Z,99342.50
2023-01-31T19:22:29.526Z,99336.66
2023-01-31T19:24:58.524Z,99335.56
2023-01-31T19:27:26.938Z,99333.25
2023-01-31T19:29:55.235Z,99333.69
2023-01-31T19:32:23.542Z,99333.38
2023-01-31T19:34:53.977Z,99331.84
2023-01-31T19:37:22.526Z,99327.97
2023-01-31T19:39:50.960Z,99325.66
2023-01-31T19:42:19.433Z,99332.41
2023-01-31T19:44:47.777Z,99333.31
2023-01-31T19:47:16.147Z,99331.78
2023-01-31T19:49:44.468Z,99328.69
2023-01-31T19:52:12.762Z,99324.53
2023-01-31T19:54:42.288Z,99324.19
2023-01-31T19:57:10.599Z,99323.84
2023-01-31T19:59:39.181Z,99321.53
2023-01-31T20:02:07.646Z,99318.91
2023-01-31T20:04:36.058Z,99315.06
2023-01-31T20:07:04.381Z,99322.56
2023-01-31T20:09:32.691Z,99325.78
2023-01-31T20:12:01.221Z,99319.94
2023-01-31T20:14:30.513Z,99329.78
2023-01-31T20:16:59.145Z,99325.78
2023-01-31T20:19:27.649Z,99332.53
2023-01-31T20:21:56.135Z,99327.00
2023-01-31T20:24:24.714Z,99323.47
2023-01-31T20:26:53.079Z,99321.94
2023-01-31T20:29:21.386Z,99324.69
2023-01-31T20:31:52.133Z,99329.13
2023-01-31T20:34:20.516Z,99330.34
2023-01-31T20:36:48.955Z,99320.97
2023-01-31T20:39:17.337Z,99324.19
2023-01-31T20:41:45.645Z,99327.41
2023-01-31T20:44:14.050Z,99325.84
2023-01-31T20:46:42.352Z,99319.09
2023-01-31T20:49:10.692Z,99309.16
2023-01-31T20:51:39.009Z,99307.59
2023-01-31T20:54:07.537Z,99316.88
2023-01-31T20:56:35.899Z,99315.97
2023-01-31T20:59:04.192Z,99300.16
2023-01-31T21:01:32.554Z,99301.69
2023-01-31T21:04:01.339Z,99302.91
2023-01-31T21:06:29.682Z,99303.38
2023-01-31T21:08:58.227Z,99292.44
2023-01-31T21:11:26.630Z,99308.69
2023-01-31T21:13:54.928Z,99299.31
2023-01-31T21:16:23.352Z,99308.06
2023-01-31T21:18:51.847Z,99310.91
2023-01-31T21:21:25.300Z,99308.59
2023-01-31T21:24:00.387Z,99305.03
2023-01-31T21:26:28.806Z,99312.25
2023-01-31T21:28:57.203Z,99309.16
2023-01-31T21:31:25.600Z,99311.59
2023-01-31T21:33:54.409Z,99313.25
2023-01-31T21:36:25.718Z,99318.00
2023-01-31T21:38:55.206Z,99315.69
2023-01-31T21:41:41.724Z,99321.22
2023-01-31T21:44:10.376Z,99329.50
2023-01-31T21:46:38.839Z,99319.69
2023-01-31T21:49:07.285Z,99336.25
2023-01-31T21:51:35.646Z,99331.19
2023-01-31T21:54:04.175Z,99343.75
2023-01-31T21:56:32.511Z,99341.44
2023-01-31T21:59:00.976Z,99344.66
2023-01-31T22:01:35.068Z,99332.53
2023-01-31T22:04:04.281Z,99339.72
2023-01-31T22:06:39.167Z,99337.03
2023-01-31T22:09:12.598Z,99342.22
2023-01-31T22:11:41.577Z,99341.13
2023-01-31T22:14:12.993Z,99346.34
2023-01-31T22:16:42.834Z,99346.44
2023-01-31T22:19:15.302Z,99341.81
2023-01-31T22:21:44.856Z,99339.97
2023-01-31T22:24:13.183Z,99330.59
2023-01-31T22:26:44.519Z,99333.00
2023-01-31T22:29:16.732Z,99328.38
2023-01-31T22:31:46.221Z,99340.19
2023-01-31T22:34:16.776Z,99342.19
2023-01-31T22:36:45.152Z,99339.88
2023-01-31T22:39:16.767Z,99339.88
2023-01-31T22:41:47.980Z,99331.59
2023-01-31T22:44:16.389Z,99337.13
2023-01-31T22:46:44.827Z,99338.31
2023-01-31T22:49:13.319Z,99347.78
2023-01-31T22:51:41.819Z,99352.53
2023-01-31T22:54:10.265Z,99357.28
2023-01-31T22:56:38.736Z,99354.53
2023-01-31T22:59:07.618Z,99350.66
2023-01-31T23:01:38.404Z,99362.47
2023-01-31T23:04:09.278Z,99363.69
2023-01-31T23:06:38.606Z,99368.88
2023-01-31T23:09:07.279Z,99374.06
2023-01-31T23:11:35.813Z,99369.44
2023-01-31T23:14:04.381Z,99386.00
2023-01-31T23:16:50.987Z,99384.47
2023-01-31T23:19:19.308Z,99409.28
2023-01-31T23:21:49.787Z,99408.97
2023-01-31T23:24:19.890Z,99403.44
2023-01-31T23:26:48.696Z,99405.44
2023-01-31T23:29:17.079Z,99414.91
2023-01-31T23:31:45.491Z,99413.38
2023-01-31T23:34:13.816Z,99416.91
2023-01-31T23:36:42.131Z,99419.66
2023-01-31T23:39:11.071Z,99419.34
2023-01-31T23:41:39.390Z,99422.09
2023-01-31T23:44:07.764Z,99417.47
2023-01-31T23:46:36.253Z,99426.19
2023-01-31T23:49:04.806Z,99423.84
2023-01-31T23:51:34.648Z,99428.59
2023-01-31T23:54:03.126Z,99431.00
2023-01-31T23:56:31.433Z,99427.06
2023-01-31T23:58:59.887Z,99431.34
